Aprelevka, Russia
Current Conditions -  °F | °C
As of 7:30 PM on Monday 24 Nov 2014 (Local Time) from UUWW Reporting Station
Light Snow Light Snow  
Wind Chill: 21°   Ceiling: 700
Heat Index: 27°   Visibility: 2.7mi
Dew Point: 27°   Wind: 4mph
Humidity: 100%   Direction: NA
Pressure: 30.65"   Gusts: NA
Location:  55.54°N, 37.07°E
Report Text: UUWW 241630Z VRB02MPS 4400 -SN BR OVC007 M03/M03 Q1038 06290050TEMPO -FZDZ
Loading
Personal Weather Stations






























Interactive Weather Map New forecast layout! Learn more

10-Day Weather Forecast

Advertisements
Track Severe Weather on mobile